sensor_id;sensor_type;location;lat;lon;timestamp;P1;durP1;ratioP1;P2;durP2;ratioP2
20150;SDS011;10236;49.638;6.830;2023-02-03T00:00:54;17.33;;;10.40;;
20150;SDS011;10236;49.638;6.830;2023-02-03T00:03:20;18.70;;;12.13;;
20150;SDS011;10236;49.638;6.830;2023-02-03T00:05:46;24.40;;;13.87;;
20150;SDS011;10236;49.638;6.830;2023-02-03T00:08:12;15.87;;;9.67;;
20150;SDS011;10236;49.638;6.830;2023-02-03T00:10:38;34.73;;;19.03;;
20150;SDS011;10236;49.638;6.830;2023-02-03T00:13:05;29.60;;;18.03;;
20150;SDS011;10236;49.638;6.830;2023-02-03T00:15:31;54.73;;;26.93;;
20150;SDS011;10236;49.638;6.830;2023-02-03T00:17:57;103.60;;;43.93;;
20150;SDS011;10236;49.638;6.830;2023-02-03T00:20:23;47.97;;;23.77;;
20150;SDS011;10236;49.638;6.830;2023-02-03T00:22:49;30.80;;;17.03;;
20150;SDS011;10236;49.638;6.830;2023-02-03T00:25:15;29.80;;;17.27;;
20150;SDS011;10236;49.638;6.830;2023-02-03T00:27:42;17.73;;;12.57;;
20150;SDS011;10236;49.638;6.830;2023-02-03T00:30:08;17.07;;;11.47;;
20150;SDS011;10236;49.638;6.830;2023-02-03T00:32:34;16.57;;;12.43;;
20150;SDS011;10236;49.638;6.830;2023-02-03T00:35:00;15.53;;;10.90;;
20150;SDS011;10236;49.638;6.830;2023-02-03T00:37:26;14.23;;;11.30;;
20150;SDS011;10236;49.638;6.830;2023-02-03T00:39:52;34.43;;;19.90;;
20150;SDS011;10236;49.638;6.830;2023-02-03T00:42:18;16.63;;;12.23;;
20150;SDS011;10236;49.638;6.830;2023-02-03T00:44:44;12.20;;;8.20;;
20150;SDS011;10236;49.638;6.830;2023-02-03T00:47:10;32.57;;;17.63;;
20150;SDS011;10236;49.638;6.830;2023-02-03T00:49:36;12.43;;;9.87;;
20150;SDS011;10236;49.638;6.830;2023-02-03T00:52:02;11.80;;;7.43;;
20150;SDS011;10236;49.638;6.830;2023-02-03T00:54:28;10.93;;;8.93;;
20150;SDS011;10236;49.638;6.830;2023-02-03T00:56:54;10.03;;;8.77;;
20150;SDS011;10236;49.638;6.830;2023-02-03T00:59:20;8.93;;;7.27;;
20150;SDS011;10236;49.638;6.830;2023-02-03T01:04:50;11.20;;;9.10;;
20150;SDS011;10236;49.638;6.830;2023-02-03T01:07:16;13.90;;;9.03;;
20150;SDS011;10236;49.638;6.830;2023-02-03T01:09:50;11.93;;;9.47;;
20150;SDS011;10236;49.638;6.830;2023-02-03T01:12:22;13.37;;;10.23;;
20150;SDS011;10236;49.638;6.830;2023-02-03T01:14:55;12.13;;;10.17;;
20150;SDS011;10236;49.638;6.830;2023-02-03T01:17:42;10.17;;;8.33;;
20150;SDS011;10236;49.638;6.830;2023-02-03T01:20:08;10.17;;;8.70;;
20150;SDS011;10236;49.638;6.830;2023-02-03T01:22:36;12.63;;;10.47;;
20150;SDS011;10236;49.638;6.830;2023-02-03T01:25:04;13.77;;;8.90;;
20150;SDS011;10236;49.638;6.830;2023-02-03T01:27:38;9.83;;;8.33;;
20150;SDS011;10236;49.638;6.830;2023-02-03T01:30:14;10.67;;;8.87;;
20150;SDS011;10236;49.638;6.830;2023-02-03T01:32:56;10.97;;;9.67;;
20150;SDS011;10236;49.638;6.830;2023-02-03T01:35:40;13.57;;;9.23;;
20150;SDS011;10236;49.638;6.830;2023-02-03T01:38:12;13.73;;;11.20;;
20150;SDS011;10236;49.638;6.830;2023-02-03T01:43:34;13.13;;;10.53;;
20150;SDS011;10236;49.638;6.830;2023-02-03T01:48:49;17.13;;;11.97;;
20150;SDS011;10236;49.638;6.830;2023-02-03T01:51:24;14.70;;;11.03;;
20150;SDS011;10236;49.638;6.830;2023-02-03T01:53:55;17.50;;;13.80;;
20150;SDS011;10236;49.638;6.830;2023-02-03T01:56:27;16.50;;;11.83;;
20150;SDS011;10236;49.638;6.830;2023-02-03T01:59:15;15.07;;;11.57;;
20150;SDS011;10236;49.638;6.830;2023-02-03T02:01:45;15.20;;;11.40;;
20150;SDS011;10236;49.638;6.830;2023-02-03T02:04:14;15.53;;;13.50;;
20150;SDS011;10236;49.638;6.830;2023-02-03T02:06:43;18.27;;;13.13;;
20150;SDS011;10236;49.638;6.830;2023-02-03T02:09:18;16.97;;;12.03;;
20150;SDS011;10236;49.638;6.830;2023-02-03T02:11:49;16.77;;;13.73;;
20150;SDS011;10236;49.638;6.830;2023-02-03T02:14:15;18.10;;;14.27;;
20150;SDS011;10236;49.638;6.830;2023-02-03T02:33:17;20.67;;;12.37;;
20150;SDS011;10236;49.638;6.830;2023-02-03T02:35:54;17.70;;;11.70;;
20150;SDS011;10236;49.638;6.830;2023-02-03T02:41:19;16.07;;;11.47;;
20150;SDS011;10236;49.638;6.830;2023-02-03T02:46:40;17.70;;;12.47;;
20150;SDS011;10236;49.638;6.830;2023-02-03T02:52:03;13.57;;;11.30;;
20150;SDS011;10236;49.638;6.830;2023-02-03T02:54:44;16.70;;;11.77;;
20150;SDS011;10236;49.638;6.830;2023-02-03T02:57:15;17.37;;;12.63;;
20150;SDS011;10236;49.638;6.830;2023-02-03T03:00:06;15.37;;;11.70;;
20150;SDS011;10236;49.638;6.830;2023-02-03T03:02:35;14.17;;;12.03;;
20150;SDS011;10236;49.638;6.830;2023-02-03T03:05:11;16.17;;;11.63;;
20150;SDS011;10236;49.638;6.830;2023-02-03T03:07:50;19.47;;;13.17;;
20150;SDS011;10236;49.638;6.830;2023-02-03T03:10:19;16.50;;;10.90;;
20150;SDS011;10236;49.638;6.830;2023-02-03T03:12:49;15.27;;;12.67;;
20150;SDS011;10236;49.638;6.830;2023-02-03T03:15:19;15.30;;;10.60;;
20150;SDS011;10236;49.638;6.830;2023-02-03T03:18:00;17.30;;;11.47;;
20150;SDS011;10236;49.638;6.830;2023-02-03T03:20:32;15.60;;;11.57;;
20150;SDS011;10236;49.638;6.830;2023-02-03T03:23:09;14.57;;;11.03;;
20150;SDS011;10236;49.638;6.830;2023-02-03T03:25:38;15.93;;;12.03;;
20150;SDS011;10236;49.638;6.830;2023-02-03T03:28:07;19.33;;;12.50;;
20150;SDS011;10236;49.638;6.830;2023-02-03T03:30:35;15.70;;;12.23;;
20150;SDS011;10236;49.638;6.830;2023-02-03T03:33:02;13.30;;;10.97;;
20150;SDS011;10236;49.638;6.830;2023-02-03T03:35:37;21.90;;;14.23;;
20150;SDS011;10236;49.638;6.830;2023-02-03T03:38:45;18.93;;;15.70;;
20150;SDS011;10236;49.638;6.830;2023-02-03T03:44:03;18.93;;;13.70;;
20150;SDS011;10236;49.638;6.830;2023-02-03T03:46:34;20.50;;;13.93;;
20150;SDS011;10236;49.638;6.830;2023-02-03T03:49:12;18.73;;;14.77;;
20150;SDS011;10236;49.638;6.830;2023-02-03T03:51:47;16.77;;;12.87;;
20150;SDS011;10236;49.638;6.830;2023-02-03T03:54:19;16.57;;;13.50;;
20150;SDS011;10236;49.638;6.830;2023-02-03T03:57:07;18.43;;;14.00;;
20150;SDS011;10236;49.638;6.830;2023-02-03T03:59:46;20.67;;;13.43;;
20150;SDS011;10236;49.638;6.830;2023-02-03T04:02:13;19.47;;;12.03;;
20150;SDS011;10236;49.638;6.830;2023-02-03T04:04:43;16.63;;;12.87;;
20150;SDS011;10236;49.638;6.830;2023-02-03T04:07:26;13.77;;;11.73;;
20150;SDS011;10236;49.638;6.830;2023-02-03T04:09:59;14.57;;;12.07;;
20150;SDS011;10236;49.638;6.830;2023-02-03T04:12:26;15.03;;;11.07;;
20150;SDS011;10236;49.638;6.830;2023-02-03T04:14:59;14.03;;;10.07;;
20150;SDS011;10236;49.638;6.830;2023-02-03T04:17:28;15.67;;;10.47;;
20150;SDS011;10236;49.638;6.830;2023-02-03T04:19:58;16.03;;;8.90;;
20150;SDS011;10236;49.638;6.830;2023-02-03T04:25:00;12.67;;;7.57;;
20150;SDS011;10236;49.638;6.830;2023-02-03T04:27:29;16.17;;;9.17;;
20150;SDS011;10236;49.638;6.830;2023-02-03T04:30:08;12.97;;;9.60;;
20150;SDS011;10236;49.638;6.830;2023-02-03T04:32:43;9.60;;;8.03;;
20150;SDS011;10236;49.638;6.830;2023-02-03T04:35:21;11.47;;;7.77;;
20150;SDS011;10236;49.638;6.830;2023-02-03T04:37:55;11.87;;;8.67;;
20150;SDS011;10236;49.638;6.830;2023-02-03T04:40:24;13.13;;;9.50;;
20150;SDS011;10236;49.638;6.830;2023-02-03T04:42:52;11.60;;;8.43;;
20150;SDS011;10236;49.638;6.830;2023-02-03T04:45:21;11.67;;;9.07;;
20150;SDS011;10236;49.638;6.830;2023-02-03T04:47:58;11.97;;;7.97;;
20150;SDS011;10236;49.638;6.830;2023-02-03T04:50:28;10.97;;;8.13;;
20150;SDS011;10236;49.638;6.830;2023-02-03T04:52:57;15.53;;;9.20;;
20150;SDS011;10236;49.638;6.830;2023-02-03T04:55:53;11.43;;;8.00;;
20150;SDS011;10236;49.638;6.830;2023-02-03T04:58:21;10.53;;;7.97;;
20150;SDS011;10236;49.638;6.830;2023-02-03T05:00:55;10.47;;;8.20;;
20150;SDS011;10236;49.638;6.830;2023-02-03T05:03:41;12.87;;;8.60;;
20150;SDS011;10236;49.638;6.830;2023-02-03T05:06:09;13.77;;;8.83;;
20150;SDS011;10236;49.638;6.830;2023-02-03T05:08:36;11.57;;;8.37;;
20150;SDS011;10236;49.638;6.830;2023-02-03T05:11:38;14.47;;;8.63;;
20150;SDS011;10236;49.638;6.830;2023-02-03T05:13:59;10.13;;;8.50;;
20150;SDS011;10236;49.638;6.830;2023-02-03T05:16:34;11.57;;;7.53;;
20150;SDS011;10236;49.638;6.830;2023-02-03T05:19:05;11.93;;;9.23;;
20150;SDS011;10236;49.638;6.830;2023-02-03T05:21:42;10.50;;;7.23;;
20150;SDS011;10236;49.638;6.830;2023-02-03T05:24:26;10.53;;;8.20;;
20150;SDS011;10236;49.638;6.830;2023-02-03T05:26:52;9.93;;;8.00;;
20150;SDS011;10236;49.638;6.830;2023-02-03T05:29:44;9.53;;;7.63;;
20150;SDS011;10236;49.638;6.830;2023-02-03T05:32:12;11.73;;;8.17;;
20150;SDS011;10236;49.638;6.830;2023-02-03T05:34:49;10.83;;;7.70;;
20150;SDS011;10236;49.638;6.830;2023-02-03T05:37:21;9.30;;;7.60;;
20150;SDS011;10236;49.638;6.830;2023-02-03T05:42:51;10.20;;;7.63;;
20150;SDS011;10236;49.638;6.830;2023-02-03T05:45:32;14.33;;;8.37;;
20150;SDS011;10236;49.638;6.830;2023-02-03T05:48:05;9.03;;;7.60;;
20150;SDS011;10236;49.638;6.830;2023-02-03T05:50:55;9.97;;;7.00;;
20150;SDS011;10236;49.638;6.830;2023-02-03T05:53:21;8.83;;;7.23;;
20150;SDS011;10236;49.638;6.830;2023-02-03T05:56:17;7.70;;;5.87;;
20150;SDS011;10236;49.638;6.830;2023-02-03T05:58:49;8.10;;;6.47;;
20150;SDS011;10236;49.638;6.830;2023-02-03T06:01:18;8.77;;;6.70;;
20150;SDS011;10236;49.638;6.830;2023-02-03T06:03:49;8.47;;;5.87;;
20150;SDS011;10236;49.638;6.830;2023-02-03T06:06:18;11.93;;;6.03;;
20150;SDS011;10236;49.638;6.830;2023-02-03T06:08:54;8.77;;;5.90;;
20150;SDS011;10236;49.638;6.830;2023-02-03T06:11:23;10.00;;;5.40;;
20150;SDS011;10236;49.638;6.830;2023-02-03T06:13:52;7.57;;;6.03;;
20150;SDS011;10236;49.638;6.830;2023-02-03T06:16:19;11.20;;;6.53;;
20150;SDS011;10236;49.638;6.830;2023-02-03T06:18:49;11.87;;;6.63;;
20150;SDS011;10236;49.638;6.830;2023-02-03T06:21:21;7.87;;;6.60;;
20150;SDS011;10236;49.638;6.830;2023-02-03T06:23:56;8.87;;;6.37;;
20150;SDS011;10236;49.638;6.830;2023-02-03T06:26:22;6.73;;;5.00;;
20150;SDS011;10236;49.638;6.830;2023-02-03T06:28:51;9.70;;;6.27;;
20150;SDS011;10236;49.638;6.830;2023-02-03T06:31:20;6.47;;;5.33;;
20150;SDS011;10236;49.638;6.830;2023-02-03T06:33:46;8.10;;;5.93;;
20150;SDS011;10236;49.638;6.830;2023-02-03T06:36:18;7.30;;;5.37;;
20150;SDS011;10236;49.638;6.830;2023-02-03T06:38:53;7.70;;;5.93;;
20150;SDS011;10236;49.638;6.830;2023-02-03T06:41:23;9.13;;;5.73;;
20150;SDS011;10236;49.638;6.830;2023-02-03T06:43:55;12.17;;;7.00;;
20150;SDS011;10236;49.638;6.830;2023-02-03T06:49:17;7.87;;;6.60;;
20150;SDS011;10236;49.638;6.830;2023-02-03T06:54:45;8.67;;;6.30;;
20150;SDS011;10236;49.638;6.830;2023-02-03T06:57:31;8.07;;;6.60;;
20150;SDS011;10236;49.638;6.830;2023-02-03T07:00:00;7.43;;;6.63;;
20150;SDS011;10236;49.638;6.830;2023-02-03T07:02:35;7.03;;;6.30;;
20150;SDS011;10236;49.638;6.830;2023-02-03T07:05:07;7.50;;;6.80;;
20150;SDS011;10236;49.638;6.830;2023-02-03T07:07:36;12.50;;;8.90;;
20150;SDS011;10236;49.638;6.830;2023-02-03T07:10:06;19.03;;;12.40;;
20150;SDS011;10236;49.638;6.830;2023-02-03T07:12:32;22.70;;;13.53;;
20150;SDS011;10236;49.638;6.830;2023-02-03T07:15:00;15.43;;;10.03;;
20150;SDS011;10236;49.638;6.830;2023-02-03T07:17:36;11.90;;;7.27;;
20150;SDS011;10236;49.638;6.830;2023-02-03T07:20:02;15.87;;;10.63;;
20150;SDS011;10236;49.638;6.830;2023-02-03T07:22:28;19.03;;;11.77;;
20150;SDS011;10236;49.638;6.830;2023-02-03T07:24:54;12.47;;;9.30;;
20150;SDS011;10236;49.638;6.830;2023-02-03T07:27:21;22.57;;;12.33;;
20150;SDS011;10236;49.638;6.830;2023-02-03T07:29:47;17.90;;;10.20;;
20150;SDS011;10236;49.638;6.830;2023-02-03T07:35:08;47.50;;;24.40;;
20150;SDS011;10236;49.638;6.830;2023-02-03T07:37:38;33.97;;;18.57;;
20150;SDS011;10236;49.638;6.830;2023-02-03T07:42:46;25.77;;;16.80;;
20150;SDS011;10236;49.638;6.830;2023-02-03T07:48:07;9.97;;;6.67;;
20150;SDS011;10236;49.638;6.830;2023-02-03T07:50:41;8.20;;;6.80;;
20150;SDS011;10236;49.638;6.830;2023-02-03T07:53:13;8.57;;;6.80;;
20150;SDS011;10236;49.638;6.830;2023-02-03T07:55:48;9.60;;;7.33;;
20150;SDS011;10236;49.638;6.830;2023-02-03T07:58:23;9.40;;;7.33;;
20150;SDS011;10236;49.638;6.830;2023-02-03T08:00:55;12.43;;;8.77;;
20150;SDS011;10236;49.638;6.830;2023-02-03T08:03:23;6.03;;;5.43;;
20150;SDS011;10236;49.638;6.830;2023-02-03T08:05:49;9.90;;;6.70;;
20150;SDS011;10236;49.638;6.830;2023-02-03T08:08:20;6.87;;;5.90;;
20150;SDS011;10236;49.638;6.830;2023-02-03T08:13:32;7.67;;;6.40;;
20150;SDS011;10236;49.638;6.830;2023-02-03T08:16:04;8.03;;;6.33;;
20150;SDS011;10236;49.638;6.830;2023-02-03T08:18:43;6.97;;;6.30;;
20150;SDS011;10236;49.638;6.830;2023-02-03T08:21:12;19.57;;;15.40;;
20150;SDS011;10236;49.638;6.830;2023-02-03T08:34:59;14.57;;;7.57;;
20150;SDS011;10236;49.638;6.830;2023-02-03T08:37:25;7.43;;;5.60;;
20150;SDS011;10236;49.638;6.830;2023-02-03T08:40:01;24.33;;;11.83;;
20150;SDS011;10236;49.638;6.830;2023-02-03T08:42:32;35.43;;;13.07;;
20150;SDS011;10236;49.638;6.830;2023-02-03T08:45:20;12.60;;;6.43;;
20150;SDS011;10236;49.638;6.830;2023-02-03T08:47:46;16.30;;;8.07;;
20150;SDS011;10236;49.638;6.830;2023-02-03T08:50:20;30.63;;;13.30;;
20150;SDS011;10236;49.638;6.830;2023-02-03T08:52:55;30.90;;;13.93;;
20150;SDS011;10236;49.638;6.830;2023-02-03T08:55:30;22.83;;;11.27;;
20150;SDS011;10236;49.638;6.830;2023-02-03T08:57:56;47.40;;;18.37;;
20150;SDS011;10236;49.638;6.830;2023-02-03T09:00:22;8.90;;;5.70;;
20150;SDS011;10236;49.638;6.830;2023-02-03T09:02:53;16.40;;;8.50;;
20150;SDS011;10236;49.638;6.830;2023-02-03T09:05:26;33.90;;;13.13;;
20150;SDS011;10236;49.638;6.830;2023-02-03T09:07:51;13.93;;;6.93;;
20150;SDS011;10236;49.638;6.830;2023-02-03T09:10:21;16.83;;;8.03;;
20150;SDS011;10236;49.638;6.830;2023-02-03T09:12:49;13.13;;;7.50;;
20150;SDS011;10236;49.638;6.830;2023-02-03T09:15:15;13.57;;;6.00;;
20150;SDS011;10236;49.638;6.830;2023-02-03T09:21:04;41.30;;;15.67;;
20150;SDS011;10236;49.638;6.830;2023-02-03T09:23:40;14.63;;;7.63;;
20150;SDS011;10236;49.638;6.830;2023-02-03T09:26:29;46.63;;;19.13;;
20150;SDS011;10236;49.638;6.830;2023-02-03T09:28:59;31.63;;;11.73;;
20150;SDS011;10236;49.638;6.830;2023-02-03T09:31:35;49.83;;;16.70;;
20150;SDS011;10236;49.638;6.830;2023-02-03T09:34:04;16.83;;;7.73;;
20150;SDS011;10236;49.638;6.830;2023-02-03T09:36:38;29.70;;;12.77;;
20150;SDS011;10236;49.638;6.830;2023-02-03T09:39:18;38.27;;;16.63;;
20150;SDS011;10236;49.638;6.830;2023-02-03T09:47:19;39.40;;;17.00;;
20150;SDS011;10236;49.638;6.830;2023-02-03T09:56:29;19.13;;;9.20;;
20150;SDS011;10236;49.638;6.830;2023-02-03T09:59:02;25.70;;;12.43;;
20150;SDS011;10236;49.638;6.830;2023-02-03T10:01:47;37.97;;;17.17;;
20150;SDS011;10236;49.638;6.830;2023-02-03T10:21:05;22.00;;;8.03;;
20150;SDS011;10236;49.638;6.830;2023-02-03T10:23:43;28.83;;;10.13;;
20150;SDS011;10236;49.638;6.830;2023-02-03T10:26:21;23.43;;;10.03;;
20150;SDS011;10236;49.638;6.830;2023-02-03T10:28:55;21.80;;;8.63;;
20150;SDS011;10236;49.638;6.830;2023-02-03T10:34:38;20.20;;;7.17;;
20150;SDS011;10236;49.638;6.830;2023-02-03T10:40:10;32.53;;;13.00;;
20150;SDS011;10236;49.638;6.830;2023-02-03T10:42:46;56.13;;;20.77;;
20150;SDS011;10236;49.638;6.830;2023-02-03T10:45:37;11.47;;;4.43;;
20150;SDS011;10236;49.638;6.830;2023-02-03T10:50:54;28.97;;;10.77;;
20150;SDS011;10236;49.638;6.830;2023-02-03T10:56:31;10.90;;;6.60;;
20150;SDS011;10236;49.638;6.830;2023-02-03T10:59:02;11.33;;;7.43;;
20150;SDS011;10236;49.638;6.830;2023-02-03T11:01:43;5.50;;;3.90;;
20150;SDS011;10236;49.638;6.830;2023-02-03T11:04:27;5.03;;;3.23;;
20150;SDS011;10236;49.638;6.830;2023-02-03T11:07:22;4.87;;;3.37;;
20150;SDS011;10236;49.638;6.830;2023-02-03T11:09:48;11.60;;;6.63;;
20150;SDS011;10236;49.638;6.830;2023-02-03T11:12:20;6.50;;;4.10;;
20150;SDS011;10236;49.638;6.830;2023-02-03T11:14:52;6.83;;;4.77;;
20150;SDS011;10236;49.638;6.830;2023-02-03T11:17:26;8.50;;;5.60;;
20150;SDS011;10236;49.638;6.830;2023-02-03T11:19:58;6.57;;;4.80;;
20150;SDS011;10236;49.638;6.830;2023-02-03T11:22:47;8.77;;;5.60;;
20150;SDS011;10236;49.638;6.830;2023-02-03T11:25:19;10.60;;;7.00;;
20150;SDS011;10236;49.638;6.830;2023-02-03T11:27:56;5.87;;;3.73;;
20150;SDS011;10236;49.638;6.830;2023-02-03T11:30:39;6.27;;;3.90;;
20150;SDS011;10236;49.638;6.830;2023-02-03T11:33:18;17.43;;;9.33;;
20150;SDS011;10236;49.638;6.830;2023-02-03T11:35:59;5.63;;;2.93;;
20150;SDS011;10236;49.638;6.830;2023-02-03T11:38:38;3.77;;;1.73;;
20150;SDS011;10236;49.638;6.830;2023-02-03T11:41:21;2.47;;;1.60;;
20150;SDS011;10236;49.638;6.830;2023-02-03T11:43:55;2.20;;;1.50;;
20150;SDS011;10236;49.638;6.830;2023-02-03T11:46:31;1.40;;;1.23;;
20150;SDS011;10236;49.638;6.830;2023-02-03T11:49:11;2.77;;;1.10;;
20150;SDS011;10236;49.638;6.830;2023-02-03T11:51:56;4.93;;;3.90;;
20150;SDS011;10236;49.638;6.830;2023-02-03T11:54:30;4.87;;;2.00;;
20150;SDS011;10236;49.638;6.830;2023-02-03T12:02:29;2.40;;;1.70;;
20150;SDS011;10236;49.638;6.830;2023-02-03T12:08:02;1.70;;;1.57;;
20150;SDS011;10236;49.638;6.830;2023-02-03T12:29:36;3.63;;;2.07;;
20150;SDS011;10236;49.638;6.830;2023-02-03T12:35:20;5.50;;;2.77;;
20150;SDS011;10236;49.638;6.830;2023-02-03T12:37:53;11.47;;;7.63;;
20150;SDS011;10236;49.638;6.830;2023-02-03T12:40:40;7.97;;;4.77;;
20150;SDS011;10236;49.638;6.830;2023-02-03T12:46:17;18.97;;;13.53;;
20150;SDS011;10236;49.638;6.830;2023-02-03T12:48:49;2.83;;;2.20;;
20150;SDS011;10236;49.638;6.830;2023-02-03T12:54:00;2.50;;;2.10;;
20150;SDS011;10236;49.638;6.830;2023-02-03T12:56:43;5.80;;;4.43;;
20150;SDS011;10236;49.638;6.830;2023-02-03T12:59:21;5.70;;;3.53;;
20150;SDS011;10236;49.638;6.830;2023-02-03T13:02:02;3.43;;;2.17;;
20150;SDS011;10236;49.638;6.830;2023-02-03T13:04:44;2.43;;;1.90;;
20150;SDS011;10236;49.638;6.830;2023-02-03T13:09:48;4.50;;;2.07;;
20150;SDS011;10236;49.638;6.830;2023-02-03T13:12:23;7.03;;;4.60;;
20150;SDS011;10236;49.638;6.830;2023-02-03T13:14:52;5.73;;;3.63;;
20150;SDS011;10236;49.638;6.830;2023-02-03T13:17:21;5.20;;;1.93;;
20150;SDS011;10236;49.638;6.830;2023-02-03T13:19:57;4.60;;;2.80;;
20150;SDS011;10236;49.638;6.830;2023-02-03T13:22:25;6.20;;;3.73;;
20150;SDS011;10236;49.638;6.830;2023-02-03T13:24:52;2.73;;;1.97;;
20150;SDS011;10236;49.638;6.830;2023-02-03T13:27:24;4.43;;;2.30;;
20150;SDS011;10236;49.638;6.830;2023-02-03T13:30:08;3.73;;;2.37;;
20150;SDS011;10236;49.638;6.830;2023-02-03T13:35:31;6.83;;;4.53;;
20150;SDS011;10236;49.638;6.830;2023-02-03T13:40:34;1.33;;;1.03;;
20150;SDS011;10236;49.638;6.830;2023-02-03T13:43:03;6.10;;;3.60;;
20150;SDS011;10236;49.638;6.830;2023-02-03T13:45:38;2.87;;;1.70;;
20150;SDS011;10236;49.638;6.830;2023-02-03T13:48:09;4.83;;;1.57;;
20150;SDS011;10236;49.638;6.830;2023-02-03T13:50:36;3.13;;;1.23;;
20150;SDS011;10236;49.638;6.830;2023-02-03T13:53:03;2.63;;;1.70;;
20150;SDS011;10236;49.638;6.830;2023-02-03T13:55:41;2.83;;;1.87;;
20150;SDS011;10236;49.638;6.830;2023-02-03T13:58:27;2.30;;;1.50;;
20150;SDS011;10236;49.638;6.830;2023-02-03T14:01:01;3.43;;;2.30;;
20150;SDS011;10236;49.638;6.830;2023-02-03T14:05:54;2.80;;;1.87;;
20150;SDS011;10236;49.638;6.830;2023-02-03T14:13:37;4.47;;;3.47;;
20150;SDS011;10236;49.638;6.830;2023-02-03T14:16:22;4.37;;;3.97;;
20150;SDS011;10236;49.638;6.830;2023-02-03T14:18:48;3.67;;;2.00;;
20150;SDS011;10236;49.638;6.830;2023-02-03T14:21:15;4.20;;;2.10;;
20150;SDS011;10236;49.638;6.830;2023-02-03T14:23:44;4.07;;;3.30;;
20150;SDS011;10236;49.638;6.830;2023-02-03T14:26:23;2.63;;;1.93;;
20150;SDS011;10236;49.638;6.830;2023-02-03T14:28:53;3.53;;;2.13;;
20150;SDS011;10236;49.638;6.830;2023-02-03T14:31:20;3.30;;;2.60;;
20150;SDS011;10236;49.638;6.830;2023-02-03T14:36:26;2.90;;;2.10;;
20150;SDS011;10236;49.638;6.830;2023-02-03T14:38:53;2.80;;;2.60;;
20150;SDS011;10236;49.638;6.830;2023-02-03T14:41:22;4.13;;;3.73;;
20150;SDS011;10236;49.638;6.830;2023-02-03T14:51:44;6.00;;;3.20;;
20150;SDS011;10236;49.638;6.830;2023-02-03T14:59:29;3.93;;;2.97;;
20150;SDS011;10236;49.638;6.830;2023-02-03T15:04:28;3.83;;;2.87;;
20150;SDS011;10236;49.638;6.830;2023-02-03T15:06:54;2.67;;;1.67;;
20150;SDS011;10236;49.638;6.830;2023-02-03T15:09:22;5.47;;;4.67;;
20150;SDS011;10236;49.638;6.830;2023-02-03T15:11:49;4.57;;;3.40;;
20150;SDS011;10236;49.638;6.830;2023-02-03T15:16:44;2.77;;;2.07;;
20150;SDS011;10236;49.638;6.830;2023-02-03T15:19:17;2.40;;;2.20;;
20150;SDS011;10236;49.638;6.830;2023-02-03T15:21:43;3.80;;;3.10;;
20150;SDS011;10236;49.638;6.830;2023-02-03T15:24:13;3.90;;;3.00;;
20150;SDS011;10236;49.638;6.830;2023-02-03T15:26:44;5.40;;;3.20;;
20150;SDS011;10236;49.638;6.830;2023-02-03T15:29:22;3.90;;;2.60;;
20150;SDS011;10236;49.638;6.830;2023-02-03T15:31:49;5.57;;;3.67;;
20150;SDS011;10236;49.638;6.830;2023-02-03T15:34:37;6.37;;;3.90;;
20150;SDS011;10236;49.638;6.830;2023-02-03T15:37:06;6.80;;;4.60;;
20150;SDS011;10236;49.638;6.830;2023-02-03T15:39:35;5.17;;;2.83;;
20150;SDS011;10236;49.638;6.830;2023-02-03T15:42:03;6.03;;;4.07;;
20150;SDS011;10236;49.638;6.830;2023-02-03T15:44:34;4.43;;;3.10;;
20150;SDS011;10236;49.638;6.830;2023-02-03T15:47:03;5.23;;;4.50;;
20150;SDS011;10236;49.638;6.830;2023-02-03T15:49:34;4.23;;;3.17;;
20150;SDS011;10236;49.638;6.830;2023-02-03T15:52:09;4.63;;;3.93;;
20150;SDS011;10236;49.638;6.830;2023-02-03T15:54:38;4.23;;;3.30;;
20150;SDS011;10236;49.638;6.830;2023-02-03T15:57:13;6.13;;;4.00;;
20150;SDS011;10236;49.638;6.830;2023-02-03T15:59:41;9.03;;;6.13;;
20150;SDS011;10236;49.638;6.830;2023-02-03T16:04:39;27.37;;;14.40;;
20150;SDS011;10236;49.638;6.830;2023-02-03T16:07:05;45.10;;;22.60;;
20150;SDS011;10236;49.638;6.830;2023-02-03T16:09:32;29.77;;;18.27;;
20150;SDS011;10236;49.638;6.830;2023-02-03T16:12:17;28.73;;;17.93;;
20150;SDS011;10236;49.638;6.830;2023-02-03T16:14:47;20.63;;;10.47;;
20150;SDS011;10236;49.638;6.830;2023-02-03T16:17:23;33.17;;;19.00;;
20150;SDS011;10236;49.638;6.830;2023-02-03T16:19:50;53.43;;;28.33;;
20150;SDS011;10236;49.638;6.830;2023-02-03T16:22:29;75.73;;;36.97;;
20150;SDS011;10236;49.638;6.830;2023-02-03T16:24:57;13.43;;;8.20;;
20150;SDS011;10236;49.638;6.830;2023-02-03T16:27:36;31.03;;;18.30;;
20150;SDS011;10236;49.638;6.830;2023-02-03T16:33:00;51.53;;;29.90;;
20150;SDS011;10236;49.638;6.830;2023-02-03T16:35:44;17.60;;;11.30;;
20150;SDS011;10236;49.638;6.830;2023-02-03T16:38:29;43.33;;;26.10;;
20150;SDS011;10236;49.638;6.830;2023-02-03T16:41:15;18.10;;;14.07;;
20150;SDS011;10236;49.638;6.830;2023-02-03T16:44:00;24.20;;;15.83;;
20150;SDS011;10236;49.638;6.830;2023-02-03T16:46:45;7.40;;;6.50;;
20150;SDS011;10236;49.638;6.830;2023-02-03T16:49:30;10.47;;;8.33;;
20150;SDS011;10236;49.638;6.830;2023-02-03T16:52:15;10.10;;;7.10;;
20150;SDS011;10236;49.638;6.830;2023-02-03T16:54:41;12.30;;;8.50;;
20150;SDS011;10236;49.638;6.830;2023-02-03T16:57:06;4.70;;;4.27;;
20150;SDS011;10236;49.638;6.830;2023-02-03T16:59:32;7.63;;;6.87;;
20150;SDS011;10236;49.638;6.830;2023-02-03T17:01:58;4.87;;;4.30;;
20150;SDS011;10236;49.638;6.830;2023-02-03T17:04:25;6.60;;;5.53;;
20150;SDS011;10236;49.638;6.830;2023-02-03T17:06:51;7.60;;;5.80;;
20150;SDS011;10236;49.638;6.830;2023-02-03T17:09:17;9.50;;;6.73;;
20150;SDS011;10236;49.638;6.830;2023-02-03T17:11:48;7.43;;;6.67;;
20150;SDS011;10236;49.638;6.830;2023-02-03T17:14:14;8.00;;;7.20;;
20150;SDS011;10236;49.638;6.830;2023-02-03T17:16:40;7.67;;;6.40;;
20150;SDS011;10236;49.638;6.830;2023-02-03T17:19:10;9.23;;;7.10;;
20150;SDS011;10236;49.638;6.830;2023-02-03T17:21:36;10.00;;;9.07;;
20150;SDS011;10236;49.638;6.830;2023-02-03T17:24:03;9.30;;;8.20;;
20150;SDS011;10236;49.638;6.830;2023-02-03T17:26:29;10.67;;;9.20;;
20150;SDS011;10236;49.638;6.830;2023-02-03T17:28:55;10.50;;;9.07;;
20150;SDS011;10236;49.638;6.830;2023-02-03T17:31:26;10.20;;;8.73;;
20150;SDS011;10236;49.638;6.830;2023-02-03T17:33:52;12.13;;;9.37;;
20150;SDS011;10236;49.638;6.830;2023-02-03T17:36:19;11.23;;;8.73;;
20150;SDS011;10236;49.638;6.830;2023-02-03T17:38:49;11.40;;;10.00;;
20150;SDS011;10236;49.638;6.830;2023-02-03T17:41:16;13.43;;;10.67;;
20150;SDS011;10236;49.638;6.830;2023-02-03T17:43:42;12.67;;;10.13;;
20150;SDS011;10236;49.638;6.830;2023-02-03T17:46:10;11.63;;;9.87;;
20150;SDS011;10236;49.638;6.830;2023-02-03T17:48:36;12.87;;;11.43;;
20150;SDS011;10236;49.638;6.830;2023-02-03T17:53:31;10.93;;;9.37;;
20150;SDS011;10236;49.638;6.830;2023-02-03T17:55:57;12.73;;;10.67;;
20150;SDS011;10236;49.638;6.830;2023-02-03T17:58:23;12.33;;;9.77;;
20150;SDS011;10236;49.638;6.830;2023-02-03T18:00:49;14.83;;;13.33;;
20150;SDS011;10236;49.638;6.830;2023-02-03T18:03:15;11.43;;;10.03;;
20150;SDS011;10236;49.638;6.830;2023-02-03T18:05:51;14.13;;;11.83;;
20150;SDS011;10236;49.638;6.830;2023-02-03T18:08:17;13.33;;;11.13;;
20150;SDS011;10236;49.638;6.830;2023-02-03T18:10:43;14.00;;;12.50;;
20150;SDS011;10236;49.638;6.830;2023-02-03T18:13:09;12.53;;;11.23;;
20150;SDS011;10236;49.638;6.830;2023-02-03T18:15:36;13.73;;;11.90;;
20150;SDS011;10236;49.638;6.830;2023-02-03T18:18:02;14.37;;;10.93;;
20150;SDS011;10236;49.638;6.830;2023-02-03T18:20:28;15.80;;;14.00;;